sensor_id;sensor_type;location;lat;lon;timestamp;P1;durP1;ratioP1;P2;durP2;ratioP2
77828;SDS011;67019;51.034;3.728;2023-03-01T00:01:17;9.88;;;6.47;;
77828;SDS011;67019;51.034;3.728;2023-03-01T00:06:15;8.83;;;6.08;;
77828;SDS011;67019;51.034;3.728;2023-03-01T00:08:42;12.55;;;6.72;;
77828;SDS011;67019;51.034;3.728;2023-03-01T00:13:41;9.13;;;5.95;;
77828;SDS011;67019;51.034;3.728;2023-03-01T00:16:15;12.18;;;6.58;;
77828;SDS011;67019;51.034;3.728;2023-03-01T00:18:44;9.13;;;5.75;;
77828;SDS011;67019;51.034;3.728;2023-03-01T00:21:12;7.15;;;5.78;;
77828;SDS011;67019;51.034;3.728;2023-03-01T00:23:39;8.45;;;5.42;;
77828;SDS011;67019;51.034;3.728;2023-03-01T00:26:08;7.25;;;5.70;;
77828;SDS011;67019;51.034;3.728;2023-03-01T00:28:37;9.83;;;6.92;;
77828;SDS011;67019;51.034;3.728;2023-03-01T00:31:13;9.63;;;6.28;;
77828;SDS011;67019;51.034;3.728;2023-03-01T00:33:39;8.53;;;5.87;;
77828;SDS011;67019;51.034;3.728;2023-03-01T00:36:07;9.98;;;7.15;;
77828;SDS011;67019;51.034;3.728;2023-03-01T00:38:36;8.55;;;6.35;;
77828;SDS011;67019;51.034;3.728;2023-03-01T00:41:05;9.00;;;6.22;;
77828;SDS011;67019;51.034;3.728;2023-03-01T00:43:34;10.93;;;6.03;;
77828;SDS011;67019;51.034;3.728;2023-03-01T00:46:08;8.38;;;5.78;;
77828;SDS011;67019;51.034;3.728;2023-03-01T00:48:38;9.85;;;6.37;;
77828;SDS011;67019;51.034;3.728;2023-03-01T00:51:19;12.63;;;6.90;;
77828;SDS011;67019;51.034;3.728;2023-03-01T00:53:52;9.80;;;6.70;;
77828;SDS011;67019;51.034;3.728;2023-03-01T00:56:22;17.70;;;8.30;;
77828;SDS011;67019;51.034;3.728;2023-03-01T00:58:52;10.85;;;7.20;;
77828;SDS011;67019;51.034;3.728;2023-03-01T01:01:20;11.55;;;8.10;;
77828;SDS011;67019;51.034;3.728;2023-03-01T01:03:54;11.45;;;6.95;;
77828;SDS011;67019;51.034;3.728;2023-03-01T01:06:27;11.63;;;6.72;;
77828;SDS011;67019;51.034;3.728;2023-03-01T01:08:57;12.98;;;8.30;;
77828;SDS011;67019;51.034;3.728;2023-03-01T01:11:25;15.05;;;8.15;;
77828;SDS011;67019;51.034;3.728;2023-03-01T01:13:55;14.15;;;7.75;;
77828;SDS011;67019;51.034;3.728;2023-03-01T01:16:24;9.95;;;7.40;;
77828;SDS011;67019;51.034;3.728;2023-03-01T01:18:53;11.05;;;7.92;;
77828;SDS011;67019;51.034;3.728;2023-03-01T01:21:22;9.85;;;7.72;;
77828;SDS011;67019;51.034;3.728;2023-03-01T01:23:50;13.08;;;8.93;;
77828;SDS011;67019;51.034;3.728;2023-03-01T01:26:20;14.15;;;8.08;;
77828;SDS011;67019;51.034;3.728;2023-03-01T01:28:49;13.30;;;8.48;;
77828;SDS011;67019;51.034;3.728;2023-03-01T01:31:17;10.43;;;7.85;;
77828;SDS011;67019;51.034;3.728;2023-03-01T01:33:45;12.20;;;8.20;;
77828;SDS011;67019;51.034;3.728;2023-03-01T01:36:15;11.75;;;8.43;;
77828;SDS011;67019;51.034;3.728;2023-03-01T01:38:42;12.80;;;8.43;;
77828;SDS011;67019;51.034;3.728;2023-03-01T01:41:12;20.15;;;10.00;;
77828;SDS011;67019;51.034;3.728;2023-03-01T01:43:41;12.85;;;8.78;;
77828;SDS011;67019;51.034;3.728;2023-03-01T01:46:25;13.30;;;8.03;;
77828;SDS011;67019;51.034;3.728;2023-03-01T01:48:54;17.87;;;9.70;;
77828;SDS011;67019;51.034;3.728;2023-03-01T01:51:37;15.90;;;10.45;;
77828;SDS011;67019;51.034;3.728;2023-03-01T01:56:41;13.38;;;8.58;;
77828;SDS011;67019;51.034;3.728;2023-03-01T01:59:12;16.77;;;9.18;;
77828;SDS011;67019;51.034;3.728;2023-03-01T02:01:41;16.00;;;9.90;;
77828;SDS011;67019;51.034;3.728;2023-03-01T02:04:09;16.32;;;11.25;;
77828;SDS011;67019;51.034;3.728;2023-03-01T02:06:45;14.70;;;9.88;;
77828;SDS011;67019;51.034;3.728;2023-03-01T02:09:13;17.20;;;10.98;;
77828;SDS011;67019;51.034;3.728;2023-03-01T02:11:42;14.80;;;9.68;;
77828;SDS011;67019;51.034;3.728;2023-03-01T02:14:11;15.30;;;8.98;;
77828;SDS011;67019;51.034;3.728;2023-03-01T02:16:39;18.37;;;10.30;;
77828;SDS011;67019;51.034;3.728;2023-03-01T02:19:08;19.30;;;11.33;;
77828;SDS011;67019;51.034;3.728;2023-03-01T02:24:13;15.85;;;9.68;;
77828;SDS011;67019;51.034;3.728;2023-03-01T02:26:52;17.48;;;10.70;;
77828;SDS011;67019;51.034;3.728;2023-03-01T02:29:22;18.15;;;10.58;;
77828;SDS011;67019;51.034;3.728;2023-03-01T02:31:51;17.82;;;9.63;;
77828;SDS011;67019;51.034;3.728;2023-03-01T02:34:23;20.12;;;10.68;;
77828;SDS011;67019;51.034;3.728;2023-03-01T02:36:58;15.60;;;10.83;;
77828;SDS011;67019;51.034;3.728;2023-03-01T02:41:52;13.72;;;9.73;;
77828;SDS011;67019;51.034;3.728;2023-03-01T02:44:21;20.52;;;11.25;;
77828;SDS011;67019;51.034;3.728;2023-03-01T02:46:50;17.55;;;11.30;;
77828;SDS011;67019;51.034;3.728;2023-03-01T02:49:22;19.52;;;11.43;;
77828;SDS011;67019;51.034;3.728;2023-03-01T02:52:01;24.15;;;13.60;;
77828;SDS011;67019;51.034;3.728;2023-03-01T02:57:16;22.25;;;15.28;;
77828;SDS011;67019;51.034;3.728;2023-03-01T02:59:44;24.07;;;14.15;;
77828;SDS011;67019;51.034;3.728;2023-03-01T03:02:19;26.15;;;14.65;;
77828;SDS011;67019;51.034;3.728;2023-03-01T03:04:50;21.75;;;13.90;;
77828;SDS011;67019;51.034;3.728;2023-03-01T03:07:17;26.17;;;13.88;;
77828;SDS011;67019;51.034;3.728;2023-03-01T03:09:45;26.33;;;16.07;;
77828;SDS011;67019;51.034;3.728;2023-03-01T03:12:12;25.37;;;14.58;;
77828;SDS011;67019;51.034;3.728;2023-03-01T03:14:40;22.85;;;14.63;;
77828;SDS011;67019;51.034;3.728;2023-03-01T03:17:08;24.37;;;14.30;;
77828;SDS011;67019;51.034;3.728;2023-03-01T03:19:35;25.95;;;15.55;;
77828;SDS011;67019;51.034;3.728;2023-03-01T03:22:03;28.57;;;14.18;;
77828;SDS011;67019;51.034;3.728;2023-03-01T03:24:30;25.77;;;15.48;;
77828;SDS011;67019;51.034;3.728;2023-03-01T03:27:00;24.63;;;14.78;;
77828;SDS011;67019;51.034;3.728;2023-03-01T03:29:27;25.32;;;15.88;;
77828;SDS011;67019;51.034;3.728;2023-03-01T03:31:56;32.15;;;17.20;;
77828;SDS011;67019;51.034;3.728;2023-03-01T03:34:24;29.37;;;14.60;;
77828;SDS011;67019;51.034;3.728;2023-03-01T03:36:55;24.12;;;14.38;;
77828;SDS011;67019;51.034;3.728;2023-03-01T03:39:25;27.65;;;16.00;;
77828;SDS011;67019;51.034;3.728;2023-03-01T03:41:54;29.52;;;15.10;;
77828;SDS011;67019;51.034;3.728;2023-03-01T03:44:22;26.87;;;15.30;;
77828;SDS011;67019;51.034;3.728;2023-03-01T03:46:49;28.55;;;16.10;;
77828;SDS011;67019;51.034;3.728;2023-03-01T03:49:17;29.20;;;17.32;;
77828;SDS011;67019;51.034;3.728;2023-03-01T03:51:45;26.12;;;15.03;;
77828;SDS011;67019;51.034;3.728;2023-03-01T03:54:14;30.20;;;16.17;;
77828;SDS011;67019;51.034;3.728;2023-03-01T03:56:43;26.12;;;16.00;;
77828;SDS011;67019;51.034;3.728;2023-03-01T03:59:12;25.55;;;14.95;;
77828;SDS011;67019;51.034;3.728;2023-03-01T04:01:39;28.47;;;14.55;;
77828;SDS011;67019;51.034;3.728;2023-03-01T04:04:07;26.02;;;13.93;;
77828;SDS011;67019;51.034;3.728;2023-03-01T04:06:34;29.70;;;14.75;;
77828;SDS011;67019;51.034;3.728;2023-03-01T04:09:02;30.20;;;14.73;;
77828;SDS011;67019;51.034;3.728;2023-03-01T04:11:30;27.82;;;14.58;;
77828;SDS011;67019;51.034;3.728;2023-03-01T04:13:58;24.30;;;14.28;;
77828;SDS011;67019;51.034;3.728;2023-03-01T04:16:26;23.83;;;14.85;;
77828;SDS011;67019;51.034;3.728;2023-03-01T04:18:53;22.85;;;14.15;;
77828;SDS011;67019;51.034;3.728;2023-03-01T04:21:21;29.57;;;15.95;;
77828;SDS011;67019;51.034;3.728;2023-03-01T04:23:49;26.52;;;15.35;;
77828;SDS011;67019;51.034;3.728;2023-03-01T04:26:18;29.12;;;16.20;;
77828;SDS011;67019;51.034;3.728;2023-03-01T04:28:46;27.85;;;15.35;;
77828;SDS011;67019;51.034;3.728;2023-03-01T04:31:17;25.12;;;14.87;;
77828;SDS011;67019;51.034;3.728;2023-03-01T04:33:52;28.83;;;14.23;;
77828;SDS011;67019;51.034;3.728;2023-03-01T04:38:44;25.48;;;15.40;;
77828;SDS011;67019;51.034;3.728;2023-03-01T04:41:15;29.77;;;15.68;;
77828;SDS011;67019;51.034;3.728;2023-03-01T04:43:44;27.82;;;14.85;;
77828;SDS011;67019;51.034;3.728;2023-03-01T04:46:13;28.02;;;15.63;;
77828;SDS011;67019;51.034;3.728;2023-03-01T04:48:43;23.60;;;14.20;;
77828;SDS011;67019;51.034;3.728;2023-03-01T04:51:12;28.60;;;15.47;;
77828;SDS011;67019;51.034;3.728;2023-03-01T04:53:40;27.73;;;15.45;;
77828;SDS011;67019;51.034;3.728;2023-03-01T04:56:09;25.75;;;15.68;;
77828;SDS011;67019;51.034;3.728;2023-03-01T05:01:09;22.05;;;13.35;;
77828;SDS011;67019;51.034;3.728;2023-03-01T05:03:39;26.73;;;13.90;;
77828;SDS011;67019;51.034;3.728;2023-03-01T05:06:11;23.62;;;14.35;;
77828;SDS011;67019;51.034;3.728;2023-03-01T05:08:39;26.05;;;14.25;;
77828;SDS011;67019;51.034;3.728;2023-03-01T05:11:08;36.35;;;16.35;;
77828;SDS011;67019;51.034;3.728;2023-03-01T05:13:36;28.95;;;15.85;;
77828;SDS011;67019;51.034;3.728;2023-03-01T05:16:05;23.83;;;12.98;;
77828;SDS011;67019;51.034;3.728;2023-03-01T05:18:35;28.55;;;14.45;;
77828;SDS011;67019;51.034;3.728;2023-03-01T05:21:04;30.10;;;14.38;;
77828;SDS011;67019;51.034;3.728;2023-03-01T05:23:51;22.48;;;13.70;;
77828;SDS011;67019;51.034;3.728;2023-03-01T05:26:19;27.58;;;15.13;;
77828;SDS011;67019;51.034;3.728;2023-03-01T05:28:47;27.55;;;15.43;;
77828;SDS011;67019;51.034;3.728;2023-03-01T05:31:16;28.02;;;14.95;;
77828;SDS011;67019;51.034;3.728;2023-03-01T05:33:44;35.33;;;15.38;;
77828;SDS011;67019;51.034;3.728;2023-03-01T05:36:11;26.05;;;14.38;;
77828;SDS011;67019;51.034;3.728;2023-03-01T05:38:40;26.30;;;14.65;;
77828;SDS011;67019;51.034;3.728;2023-03-01T05:41:13;28.92;;;14.65;;
77828;SDS011;67019;51.034;3.728;2023-03-01T05:46:06;29.02;;;14.70;;
77828;SDS011;67019;51.034;3.728;2023-03-01T05:48:37;29.65;;;13.55;;
77828;SDS011;67019;51.034;3.728;2023-03-01T05:51:04;27.70;;;13.05;;
77828;SDS011;67019;51.034;3.728;2023-03-01T05:53:33;25.23;;;14.00;;
77828;SDS011;67019;51.034;3.728;2023-03-01T05:56:03;29.72;;;14.63;;
77828;SDS011;67019;51.034;3.728;2023-03-01T05:58:30;30.00;;;14.47;;
77828;SDS011;67019;51.034;3.728;2023-03-01T06:00:58;26.62;;;14.40;;
77828;SDS011;67019;51.034;3.728;2023-03-01T06:03:26;23.55;;;13.60;;
77828;SDS011;67019;51.034;3.728;2023-03-01T06:05:57;30.27;;;14.98;;
77828;SDS011;67019;51.034;3.728;2023-03-01T06:08:25;27.50;;;15.60;;
77828;SDS011;67019;51.034;3.728;2023-03-01T06:10:54;23.98;;;13.50;;
77828;SDS011;67019;51.034;3.728;2023-03-01T06:13:23;30.65;;;15.08;;
77828;SDS011;67019;51.034;3.728;2023-03-01T06:15:50;32.85;;;14.85;;
77828;SDS011;67019;51.034;3.728;2023-03-01T06:18:18;27.10;;;14.05;;
77828;SDS011;67019;51.034;3.728;2023-03-01T06:20:51;26.45;;;14.53;;
77828;SDS011;67019;51.034;3.728;2023-03-01T06:23:23;28.42;;;15.53;;
77828;SDS011;67019;51.034;3.728;2023-03-01T06:25:51;23.73;;;15.05;;
77828;SDS011;67019;51.034;3.728;2023-03-01T06:28:19;24.32;;;14.20;;
77828;SDS011;67019;51.034;3.728;2023-03-01T06:30:47;29.98;;;15.88;;
77828;SDS011;67019;51.034;3.728;2023-03-01T06:33:17;28.70;;;14.20;;
77828;SDS011;67019;51.034;3.728;2023-03-01T06:35:47;26.15;;;13.83;;
77828;SDS011;67019;51.034;3.728;2023-03-01T06:38:15;22.32;;;14.40;;
77828;SDS011;67019;51.034;3.728;2023-03-01T06:40:45;24.63;;;13.95;;
77828;SDS011;67019;51.034;3.728;2023-03-01T06:43:14;23.45;;;13.20;;
77828;SDS011;67019;51.034;3.728;2023-03-01T06:45:41;29.02;;;14.65;;
77828;SDS011;67019;51.034;3.728;2023-03-01T06:48:09;29.72;;;15.40;;
77828;SDS011;67019;51.034;3.728;2023-03-01T06:50:37;26.62;;;14.38;;
77828;SDS011;67019;51.034;3.728;2023-03-01T06:53:04;29.10;;;13.80;;
77828;SDS011;67019;51.034;3.728;2023-03-01T06:55:32;22.17;;;11.85;;
77828;SDS011;67019;51.034;3.728;2023-03-01T06:58:00;21.62;;;12.73;;
77828;SDS011;67019;51.034;3.728;2023-03-01T07:00:29;23.57;;;13.25;;
77828;SDS011;67019;51.034;3.728;2023-03-01T07:03:00;25.65;;;13.22;;
77828;SDS011;67019;51.034;3.728;2023-03-01T07:05:29;23.22;;;13.35;;
77828;SDS011;67019;51.034;3.728;2023-03-01T07:07:57;28.07;;;13.15;;
77828;SDS011;67019;51.034;3.728;2023-03-01T07:10:26;22.22;;;12.85;;
77828;SDS011;67019;51.034;3.728;2023-03-01T07:12:54;22.75;;;11.55;;
77828;SDS011;67019;51.034;3.728;2023-03-01T07:15:24;19.90;;;11.60;;
77828;SDS011;67019;51.034;3.728;2023-03-01T07:17:53;23.95;;;13.05;;
77828;SDS011;67019;51.034;3.728;2023-03-01T07:20:21;19.75;;;11.22;;
77828;SDS011;67019;51.034;3.728;2023-03-01T07:22:51;15.80;;;11.08;;
77828;SDS011;67019;51.034;3.728;2023-03-01T07:25:23;30.57;;;11.43;;
77828;SDS011;67019;51.034;3.728;2023-03-01T07:27:51;18.62;;;10.10;;
77828;SDS011;67019;51.034;3.728;2023-03-01T07:30:20;22.20;;;11.00;;
77828;SDS011;67019;51.034;3.728;2023-03-01T07:32:50;26.17;;;11.10;;
77828;SDS011;67019;51.034;3.728;2023-03-01T07:35:18;24.50;;;11.10;;
77828;SDS011;67019;51.034;3.728;2023-03-01T07:37:46;24.32;;;11.95;;
77828;SDS011;67019;51.034;3.728;2023-03-01T07:40:13;21.57;;;10.85;;
77828;SDS011;67019;51.034;3.728;2023-03-01T07:42:41;16.45;;;10.40;;
77828;SDS011;67019;51.034;3.728;2023-03-01T07:45:09;18.95;;;10.82;;
77828;SDS011;67019;51.034;3.728;2023-03-01T07:47:39;22.80;;;10.18;;
77828;SDS011;67019;51.034;3.728;2023-03-01T07:50:07;17.80;;;10.75;;
77828;SDS011;67019;51.034;3.728;2023-03-01T07:52:35;16.27;;;10.05;;
77828;SDS011;67019;51.034;3.728;2023-03-01T07:55:04;21.60;;;11.10;;
77828;SDS011;67019;51.034;3.728;2023-03-01T07:57:32;21.25;;;12.13;;
77828;SDS011;67019;51.034;3.728;2023-03-01T08:00:00;16.70;;;10.08;;
77828;SDS011;67019;51.034;3.728;2023-03-01T08:02:28;15.18;;;10.20;;
77828;SDS011;67019;51.034;3.728;2023-03-01T08:04:56;20.92;;;11.20;;
77828;SDS011;67019;51.034;3.728;2023-03-01T08:07:23;15.23;;;9.73;;
77828;SDS011;67019;51.034;3.728;2023-03-01T08:09:51;19.48;;;10.68;;
77828;SDS011;67019;51.034;3.728;2023-03-01T08:12:19;26.33;;;10.23;;
77828;SDS011;67019;51.034;3.728;2023-03-01T08:14:46;17.07;;;10.85;;
77828;SDS011;67019;51.034;3.728;2023-03-01T08:17:14;18.40;;;10.23;;
77828;SDS011;67019;51.034;3.728;2023-03-01T08:19:42;14.07;;;9.30;;
77828;SDS011;67019;51.034;3.728;2023-03-01T08:22:10;16.32;;;10.98;;
77828;SDS011;67019;51.034;3.728;2023-03-01T08:24:40;16.80;;;9.03;;
77828;SDS011;67019;51.034;3.728;2023-03-01T08:27:07;17.55;;;10.23;;
77828;SDS011;67019;51.034;3.728;2023-03-01T08:29:35;18.15;;;10.05;;
77828;SDS011;67019;51.034;3.728;2023-03-01T08:32:03;19.60;;;10.38;;
77828;SDS011;67019;51.034;3.728;2023-03-01T08:34:31;11.75;;;8.23;;
77828;SDS011;67019;51.034;3.728;2023-03-01T08:37:01;22.58;;;10.00;;
77828;SDS011;67019;51.034;3.728;2023-03-01T08:39:30;14.10;;;8.95;;
77828;SDS011;67019;51.034;3.728;2023-03-01T08:41:58;20.02;;;9.55;;
77828;SDS011;67019;51.034;3.728;2023-03-01T08:44:26;23.50;;;10.95;;
77828;SDS011;67019;51.034;3.728;2023-03-01T08:46:53;16.75;;;11.00;;
77828;SDS011;67019;51.034;3.728;2023-03-01T08:49:21;18.40;;;9.20;;
77828;SDS011;67019;51.034;3.728;2023-03-01T08:51:49;16.12;;;9.60;;
77828;SDS011;67019;51.034;3.728;2023-03-01T08:54:18;17.00;;;9.00;;
77828;SDS011;67019;51.034;3.728;2023-03-01T08:56:47;19.15;;;10.28;;
77828;SDS011;67019;51.034;3.728;2023-03-01T08:59:15;12.25;;;6.90;;
77828;SDS011;67019;51.034;3.728;2023-03-01T09:01:44;15.55;;;9.90;;
77828;SDS011;67019;51.034;3.728;2023-03-01T09:04:12;15.98;;;8.73;;
77828;SDS011;67019;51.034;3.728;2023-03-01T09:06:42;14.50;;;8.98;;
77828;SDS011;67019;51.034;3.728;2023-03-01T09:09:12;12.93;;;8.63;;
77828;SDS011;67019;51.034;3.728;2023-03-01T09:11:41;15.88;;;9.25;;
77828;SDS011;67019;51.034;3.728;2023-03-01T09:14:12;20.35;;;10.08;;
77828;SDS011;67019;51.034;3.728;2023-03-01T09:16:40;12.33;;;7.45;;
77828;SDS011;67019;51.034;3.728;2023-03-01T09:19:07;14.98;;;9.20;;
77828;SDS011;67019;51.034;3.728;2023-03-01T09:21:37;17.80;;;8.53;;
77828;SDS011;67019;51.034;3.728;2023-03-01T09:24:05;17.37;;;10.18;;
77828;SDS011;67019;51.034;3.728;2023-03-01T09:26:34;11.73;;;5.83;;
77828;SDS011;67019;51.034;3.728;2023-03-01T09:29:01;18.75;;;9.25;;
77828;SDS011;67019;51.034;3.728;2023-03-01T09:31:29;11.93;;;6.45;;
77828;SDS011;67019;51.034;3.728;2023-03-01T09:33:57;21.52;;;8.83;;
77828;SDS011;67019;51.034;3.728;2023-03-01T09:36:24;13.03;;;8.80;;
77828;SDS011;67019;51.034;3.728;2023-03-01T09:38:52;12.05;;;7.45;;
77828;SDS011;67019;51.034;3.728;2023-03-01T09:43:59;14.65;;;8.15;;
77828;SDS011;67019;51.034;3.728;2023-03-01T09:46:29;15.90;;;9.65;;
77828;SDS011;67019;51.034;3.728;2023-03-01T09:49:01;18.57;;;8.75;;
77828;SDS011;67019;51.034;3.728;2023-03-01T09:51:35;18.55;;;7.80;;
77828;SDS011;67019;51.034;3.728;2023-03-01T09:54:01;18.27;;;8.18;;
77828;SDS011;67019;51.034;3.728;2023-03-01T09:56:34;14.30;;;8.60;;
77828;SDS011;67019;51.034;3.728;2023-03-01T09:59:21;20.43;;;8.93;;
77828;SDS011;67019;51.034;3.728;2023-03-01T10:04:45;14.38;;;7.92;;
77828;SDS011;67019;51.034;3.728;2023-03-01T10:09:58;16.02;;;8.20;;
77828;SDS011;67019;51.034;3.728;2023-03-01T10:12:32;8.97;;;5.63;;
77828;SDS011;67019;51.034;3.728;2023-03-01T10:17:50;13.05;;;6.53;;
77828;SDS011;67019;51.034;3.728;2023-03-01T10:20:43;13.15;;;7.17;;
77828;SDS011;67019;51.034;3.728;2023-03-01T10:23:15;14.95;;;8.35;;
77828;SDS011;67019;51.034;3.728;2023-03-01T10:31:18;10.53;;;5.40;;
77828;SDS011;67019;51.034;3.728;2023-03-01T10:33:53;11.97;;;5.03;;
77828;SDS011;67019;51.034;3.728;2023-03-01T10:36:23;12.40;;;6.37;;
77828;SDS011;67019;51.034;3.728;2023-03-01T10:38:55;10.82;;;7.72;;
77828;SDS011;67019;51.034;3.728;2023-03-01T10:41:24;18.48;;;8.38;;
77828;SDS011;67019;51.034;3.728;2023-03-01T10:43:54;18.40;;;6.75;;
77828;SDS011;67019;51.034;3.728;2023-03-01T10:49:07;14.95;;;8.15;;
77828;SDS011;67019;51.034;3.728;2023-03-01T10:51:44;18.32;;;8.68;;
77828;SDS011;67019;51.034;3.728;2023-03-01T10:54:18;17.15;;;8.25;;
77828;SDS011;67019;51.034;3.728;2023-03-01T10:56:51;14.20;;;7.60;;
77828;SDS011;67019;51.034;3.728;2023-03-01T10:59:23;14.35;;;8.43;;
77828;SDS011;67019;51.034;3.728;2023-03-01T11:02:14;19.32;;;7.20;;
77828;SDS011;67019;51.034;3.728;2023-03-01T11:04:37;9.73;;;5.47;;
77828;SDS011;67019;51.034;3.728;2023-03-01T11:07:07;19.40;;;7.55;;
77828;SDS011;67019;51.034;3.728;2023-03-01T11:09:35;11.48;;;7.25;;
77828;SDS011;67019;51.034;3.728;2023-03-01T11:12:13;12.95;;;9.00;;
77828;SDS011;67019;51.034;3.728;2023-03-01T11:14:36;15.08;;;9.55;;
77828;SDS011;67019;51.034;3.728;2023-03-01T11:19:59;16.10;;;8.50;;
77828;SDS011;67019;51.034;3.728;2023-03-01T11:22:47;10.72;;;7.08;;
77828;SDS011;67019;51.034;3.728;2023-03-01T11:25:16;16.00;;;7.17;;
77828;SDS011;67019;51.034;3.728;2023-03-01T11:27:46;11.70;;;8.20;;
77828;SDS011;67019;51.034;3.728;2023-03-01T11:35:45;9.88;;;6.53;;
77828;SDS011;67019;51.034;3.728;2023-03-01T11:40:46;12.95;;;7.05;;
77828;SDS011;67019;51.034;3.728;2023-03-01T11:43:19;10.72;;;6.80;;
77828;SDS011;67019;51.034;3.728;2023-03-01T11:45:50;9.28;;;6.78;;
77828;SDS011;67019;51.034;3.728;2023-03-01T11:48:47;10.48;;;7.03;;
77828;SDS011;67019;51.034;3.728;2023-03-01T11:54:02;10.53;;;7.00;;
77828;SDS011;67019;51.034;3.728;2023-03-01T11:59:36;10.88;;;6.67;;
77828;SDS011;67019;51.034;3.728;2023-03-01T12:02:39;12.73;;;7.20;;
77828;SDS011;67019;51.034;3.728;2023-03-01T12:05:12;12.85;;;6.47;;
77828;SDS011;67019;51.034;3.728;2023-03-01T12:10:28;11.48;;;5.90;;
77828;SDS011;67019;51.034;3.728;2023-03-01T12:13:23;10.28;;;5.85;;
77828;SDS011;67019;51.034;3.728;2023-03-01T12:16:13;10.60;;;6.90;;
77828;SDS011;67019;51.034;3.728;2023-03-01T12:19:01;23.07;;;7.35;;
77828;SDS011;67019;51.034;3.728;2023-03-01T12:27:17;9.80;;;5.70;;
77828;SDS011;67019;51.034;3.728;2023-03-01T12:29:53;14.10;;;6.53;;
77828;SDS011;67019;51.034;3.728;2023-03-01T12:43:57;7.90;;;6.03;;
77828;SDS011;67019;51.034;3.728;2023-03-01T12:49:38;10.58;;;5.75;;
77828;SDS011;67019;51.034;3.728;2023-03-01T12:52:14;6.58;;;4.85;;
77828;SDS011;67019;51.034;3.728;2023-03-01T12:54:45;14.78;;;6.53;;
77828;SDS011;67019;51.034;3.728;2023-03-01T12:57:20;8.93;;;6.42;;
77828;SDS011;67019;51.034;3.728;2023-03-01T13:00:02;8.43;;;4.08;;
77828;SDS011;67019;51.034;3.728;2023-03-01T13:02:45;11.40;;;5.83;;
77828;SDS011;67019;51.034;3.728;2023-03-01T13:10:51;8.30;;;5.60;;
77828;SDS011;67019;51.034;3.728;2023-03-01T13:13:21;6.47;;;4.25;;
77828;SDS011;67019;51.034;3.728;2023-03-01T13:15:50;11.78;;;5.62;;
77828;SDS011;67019;51.034;3.728;2023-03-01T13:20:52;12.20;;;5.65;;
77828;SDS011;67019;51.034;3.728;2023-03-01T13:23:26;11.57;;;6.15;;
77828;SDS011;67019;51.034;3.728;2023-03-01T13:28:46;10.63;;;5.97;;
77828;SDS011;67019;51.034;3.728;2023-03-01T13:33:51;10.55;;;5.42;;
77828;SDS011;67019;51.034;3.728;2023-03-01T13:39:00;8.05;;;5.53;;
77828;SDS011;67019;51.034;3.728;2023-03-01T13:46:58;9.23;;;6.78;;
77828;SDS011;67019;51.034;3.728;2023-03-01T13:49:29;9.20;;;5.95;;
77828;SDS011;67019;51.034;3.728;2023-03-01T13:54:29;15.72;;;7.25;;
77828;SDS011;67019;51.034;3.728;2023-03-01T13:57:00;12.23;;;6.53;;
77828;SDS011;67019;51.034;3.728;2023-03-01T13:59:28;14.18;;;6.55;;
77828;SDS011;67019;51.034;3.728;2023-03-01T14:01:57;9.60;;;5.05;;
77828;SDS011;67019;51.034;3.728;2023-03-01T14:04:27;9.03;;;6.58;;
77828;SDS011;67019;51.034;3.728;2023-03-01T14:09:42;8.45;;;5.72;;
77828;SDS011;67019;51.034;3.728;2023-03-01T14:15:00;11.28;;;7.03;;
77828;SDS011;67019;51.034;3.728;2023-03-01T14:17:41;8.90;;;5.80;;
77828;SDS011;67019;51.034;3.728;2023-03-01T14:22:55;13.50;;;6.95;;
77828;SDS011;67019;51.034;3.728;2023-03-01T14:25:30;11.08;;;6.70;;
77828;SDS011;67019;51.034;3.728;2023-03-01T14:28:01;10.45;;;6.70;;
77828;SDS011;67019;51.034;3.728;2023-03-01T14:33:17;13.15;;;7.10;;
77828;SDS011;67019;51.034;3.728;2023-03-01T14:35:56;11.50;;;6.25;;
77828;SDS011;67019;51.034;3.728;2023-03-01T14:38:32;11.05;;;6.72;;
77828;SDS011;67019;51.034;3.728;2023-03-01T14:41:03;8.63;;;6.28;;
77828;SDS011;67019;51.034;3.728;2023-03-01T14:43:43;11.38;;;6.35;;
77828;SDS011;67019;51.034;3.728;2023-03-01T14:49:02;11.73;;;6.95;;
77828;SDS011;67019;51.034;3.728;2023-03-01T14:51:52;14.63;;;7.75;;
77828;SDS011;67019;51.034;3.728;2023-03-01T14:54:39;11.00;;;6.00;;
77828;SDS011;67019;51.034;3.728;2023-03-01T14:57:21;12.00;;;5.80;;
77828;SDS011;67019;51.034;3.728;2023-03-01T14:59:57;11.88;;;6.95;;
77828;SDS011;67019;51.034;3.728;2023-03-01T15:02:25;10.28;;;6.42;;
77828;SDS011;67019;51.034;3.728;2023-03-01T15:04:55;15.00;;;7.05;;
77828;SDS011;67019;51.034;3.728;2023-03-01T15:07:28;12.68;;;6.55;;
77828;SDS011;67019;51.034;3.728;2023-03-01T15:18:06;15.98;;;8.00;;
77828;SDS011;67019;51.034;3.728;2023-03-01T15:23:01;12.35;;;6.80;;
77828;SDS011;67019;51.034;3.728;2023-03-01T15:25:30;13.58;;;6.42;;
77828;SDS011;67019;51.034;3.728;2023-03-01T15:27:59;11.12;;;7.22;;
77828;SDS011;67019;51.034;3.728;2023-03-01T15:30:30;16.67;;;7.50;;
77828;SDS011;67019;51.034;3.728;2023-03-01T15:35:54;12.75;;;6.75;;
77828;SDS011;67019;51.034;3.728;2023-03-01T15:38:28;16.02;;;8.90;;
77828;SDS011;67019;51.034;3.728;2023-03-01T15:41:23;15.72;;;8.18;;
77828;SDS011;67019;51.034;3.728;2023-03-01T15:43:53;11.97;;;7.55;;
77828;SDS011;67019;51.034;3.728;2023-03-01T15:46:23;12.03;;;7.58;;
77828;SDS011;67019;51.034;3.728;2023-03-01T15:48:56;12.73;;;6.90;;
77828;SDS011;67019;51.034;3.728;2023-03-01T15:51:36;13.50;;;6.95;;
77828;SDS011;67019;51.034;3.728;2023-03-01T15:54:12;12.55;;;6.83;;
77828;SDS011;67019;51.034;3.728;2023-03-01T15:56:36;10.43;;;7.00;;
77828;SDS011;67019;51.034;3.728;2023-03-01T15:59:04;16.00;;;7.72;;
77828;SDS011;67019;51.034;3.728;2023-03-01T16:01:33;12.15;;;7.28;;
77828;SDS011;67019;51.034;3.728;2023-03-01T16:04:10;10.25;;;7.65;;
77828;SDS011;67019;51.034;3.728;2023-03-01T16:06:33;12.05;;;7.08;;
77828;SDS011;67019;51.034;3.728;2023-03-01T16:09:01;10.98;;;6.58;;
77828;SDS011;67019;51.034;3.728;2023-03-01T16:11:29;15.03;;;6.78;;
77828;SDS011;67019;51.034;3.728;2023-03-01T16:14:00;10.68;;;6.95;;
77828;SDS011;67019;51.034;3.728;2023-03-01T16:16:27;12.60;;;8.38;;
77828;SDS011;67019;51.034;3.728;2023-03-01T16:18:55;11.83;;;8.28;;
77828;SDS011;67019;51.034;3.728;2023-03-01T16:21:23;14.75;;;7.90;;
77828;SDS011;67019;51.034;3.728;2023-03-01T16:23:51;12.23;;;7.78;;
77828;SDS011;67019;51.034;3.728;2023-03-01T16:26:19;10.58;;;7.20;;
77828;SDS011;67019;51.034;3.728;2023-03-01T16:28:48;15.95;;;7.37;;
77828;SDS011;67019;51.034;3.728;2023-03-01T16:31:17;9.60;;;7.10;;
77828;SDS011;67019;51.034;3.728;2023-03-01T16:33:48;12.95;;;8.28;;
77828;SDS011;67019;51.034;3.728;2023-03-01T16:36:18;18.67;;;7.60;;
77828;SDS011;67019;51.034;3.728;2023-03-01T16:38:50;14.23;;;7.50;;
77828;SDS011;67019;51.034;3.728;2023-03-01T16:41:20;11.20;;;7.22;;
77828;SDS011;67019;51.034;3.728;2023-03-01T16:43:49;15.50;;;7.45;;
77828;SDS011;67019;51.034;3.728;2023-03-01T16:46:23;13.13;;;7.10;;
77828;SDS011;67019;51.034;3.728;2023-03-01T16:48:54;12.35;;;7.22;;
77828;SDS011;67019;51.034;3.728;2023-03-01T16:51:23;15.28;;;8.20;;
77828;SDS011;67019;51.034;3.728;2023-03-01T16:53:51;9.95;;;6.90;;
77828;SDS011;67019;51.034;3.728;2023-03-01T16:56:19;13.50;;;7.75;;
77828;SDS011;67019;51.034;3.728;2023-03-01T16:58:49;11.55;;;7.45;;
77828;SDS011;67019;51.034;3.728;2023-03-01T17:01:18;12.90;;;8.50;;
77828;SDS011;67019;51.034;3.728;2023-03-01T17:03:48;12.65;;;7.60;;